Outsider — DF2975 — position and weather

sailwx.info

Track history (hours):
 
Tides and Currents Weather Stations Pressure Air Temp Water Temp Dewpoint Dewpoint Depression Visibility Wind Speed Wind Dir Waves Ship Positions

Outsider

Last reported at 2018-Feb-21 22:16 UTC. Time now 2018-May-25 18:55 UTC.
Position N 17°01' W 061°47'.
Warning: this ship's position is months out of date.

Length 16 m.

Type: Pleasure craft. MMSI: 211139840.

Date/timePositionNaut miles runAvg speedWind from/ knotsBaromVisibWave heightAir tempDewpointWater temp
2018-Feb-21 22:16N 17°01' W 061°47'0 0.0
2018-Feb-21 21:58N 17°01' W 061°47'0 0.0
2018-Feb-21 21:28N 17°01' W 061°47'0 0.4
2018-Feb-21 21:00N 17°01' W 061°47'1 2.4
2018-Feb-21 20:30N 17°00' W 061°47'4 6.5
2018-Feb-21 19:57N 16°59' W 061°51'99 2.8
2018-Feb-20 08:58N 18°04' W 063°10'5 9.7
2018-Feb-20 08:30N 18°00' W 063°06'70 5.8
2018-Feb-19 20:26N 17°19' W 062°08'16 9.3
2018-Feb-19 18:40N 17°28' W 061°53'213.6
2018-Feb-19 18:30N 17°26' W 061°52'813.9
2018-Feb-19 17:58N 17°19' W 061°49'816.7
2018-Feb-19 17:30N 17°13' W 061°44'814.9
2018-Feb-19 16:59N 17°06' W 061°40'4 8.7
2018-Feb-19 16:30N 17°02' W 061°41'3 6.2
2018-Feb-19 16:00N 17°00' W 061°44'2 4.2
2018-Feb-19 15:30N 16°60' W 061°46'0 0.3
2018-Feb-19 15:00N 16°60' W 061°46'1 1.8
2018-Feb-19 14:30N 16°59' W 061°45'2 3.0
2018-Feb-19 14:00N 17°00' W 061°47'1 2.3
2018-Feb-19 13:29N 17°01' W 061°47'0 0.0
2018-Feb-19 12:56N 17°01' W 061°47'0 0.0
2018-Feb-18 20:28N 17°01' W 061°47'0 0.0
2018-Feb-18 19:31N 17°01' W 061°47'0 0.1
2018-Feb-18 19:28N 17°01' W 061°47'0 0.0
2018-Feb-18 18:58N 17°01' W 061°47'0 0.0
2018-Feb-17 20:56N 17°01' W 061°47'0 1.1
2018-Feb-17 20:30N 17°01' W 061°47'3 6.2
2018-Feb-17 20:00N 16°58' W 061°49'2 3.0
2018-Feb-17 19:27N 16°58' W 061°47'3 6.8
2018-Feb-17 18:59N 17°01' W 061°47'0 0.0
2018-Feb-17 18:29N 17°01' W 061°47'0 0.0
2018-Feb-17 17:59N 17°01' W 061°47'0 0.2
2018-Feb-17 17:30N 17°01' W 061°47'3 5.7
2018-Feb-17 17:00N 16°58' W 061°46'1 2.4
2018-Feb-17 16:30N 16°58' W 061°45'2 4.8
2018-Feb-17 16:00N 16°56' W 061°47'4 7.6
2018-Feb-17 15:30N 17°00' W 061°47'1 2.4
2018-Feb-17 15:00N 17°01' W 061°47'0 0.0
2018-Feb-17 13:46N 17°01' W 061°47'0 0.0
2018-Feb-16 22:42N 17°01' W 061°47'0 0.0
2018-Feb-16 22:31N 17°01' W 061°47'0 0.0
2018-Feb-16 22:00N 17°01' W 061°47'0 0.0
2018-Feb-16 21:28N 17°01' W 061°47'0 0.0
2018-Feb-16 20:58N 17°01' W 061°47'0 0.0
2018-Feb-16 20:25N 17°01' W 061°47'0 0.0
2018-Feb-16 19:58N 17°01' W 061°47'0 0.0
2018-Feb-16 19:28N 17°01' W 061°47'0 0.0
2018-Feb-16 18:58N 17°01' W 061°47'1 1.5
2018-Feb-16 18:31N 17°01' W 061°47'3 5.4
2018-Feb-16 18:00N 16°58' W 061°47'5 9.9
2018-Feb-16 17:30N 16°56' W 061°42'5 9.6
2018-Feb-16 17:01N 17°01' W 061°41'5 9.5
2018-Feb-16 16:30N 16°57' W 061°43'2 4.4
2018-Feb-16 16:00N 16°59' W 061°43'1 2.9
2018-Feb-16 15:30N 16°59' W 061°45'2 4.0
2018-Feb-16 14:55N 17°01' W 061°47'1 0.0
2018-Feb-15 22:20N 17°01' W 061°47'0 0.0
2018-Feb-15 21:59N 17°01' W 061°47'0 0.0
2018-Feb-15 21:29N 17°01' W 061°47'0 0.0
2018-Feb-15 20:56N 17°01' W 061°47'0 0.0
2018-Feb-15 20:29N 17°01' W 061°47'0 0.0
2018-Feb-15 19:23N 17°01' W 061°47'0 0.2
2018-Feb-15 18:59N 17°01' W 061°46'0 0.0
2018-Feb-15 18:29N 17°01' W 061°46'0 0.0
2018-Feb-15 17:59N 17°01' W 061°46'  
Track history (hours):
 
Tides and Currents Weather Stations Pressure Air Temp Water Temp Dewpoint Dewpoint Depression Visibility Wind Speed Wind Dir Waves Ship Positions

Outsider

Last reported at 2018-Feb-21 22:16 UTC. Time now 2018-May-25 18:55 UTC.
Position N 17°01' W 061°47'.
Warning: this ship's position is months out of date.

Length 16 m.

Type: Pleasure craft. MMSI: 211139840.

Date/timePositionNaut miles runAvg speedWind from/ knotsBaromVisibWave heightAir tempDewpointWater temp
2018-Feb-21 22:16N 17°01' W 061°47'0 0.0
2018-Feb-21 21:58N 17°01' W 061°47'0 0.0
2018-Feb-21 21:28N 17°01' W 061°47'0 0.4
2018-Feb-21 21:00N 17°01' W 061°47'1 2.4
2018-Feb-21 20:30N 17°00' W 061°47'4 6.5
2018-Feb-21 19:57N 16°59' W 061°51'99 2.8
2018-Feb-20 08:58N 18°04' W 063°10'5 9.7
2018-Feb-20 08:30N 18°00' W 063°06'70 5.8
2018-Feb-19 20:26N 17°19' W 062°08'16 9.3
2018-Feb-19 18:40N 17°28' W 061°53'213.6
2018-Feb-19 18:30N 17°26' W 061°52'813.9
2018-Feb-19 17:58N 17°19' W 061°49'816.7
2018-Feb-19 17:30N 17°13' W 061°44'814.9
2018-Feb-19 16:59N 17°06' W 061°40'4 8.7
2018-Feb-19 16:30N 17°02' W 061°41'3 6.2
2018-Feb-19 16:00N 17°00' W 061°44'2 4.2
2018-Feb-19 15:30N 16°60' W 061°46'0 0.3
2018-Feb-19 15:00N 16°60' W 061°46'1 1.8
2018-Feb-19 14:30N 16°59' W 061°45'2 3.0
2018-Feb-19 14:00N 17°00' W 061°47'1 2.3
2018-Feb-19 13:29N 17°01' W 061°47'0 0.0
2018-Feb-19 12:56N 17°01' W 061°47'0 0.0
2018-Feb-18 20:28N 17°01' W 061°47'0 0.0
2018-Feb-18 19:31N 17°01' W 061°47'0 0.1
2018-Feb-18 19:28N 17°01' W 061°47'0 0.0
2018-Feb-18 18:58N 17°01' W 061°47'0 0.0
2018-Feb-17 20:56N 17°01' W 061°47'0 1.1
2018-Feb-17 20:30N 17°01' W 061°47'3 6.2
2018-Feb-17 20:00N 16°58' W 061°49'2 3.0
2018-Feb-17 19:27N 16°58' W 061°47'3 6.8
2018-Feb-17 18:59N 17°01' W 061°47'0 0.0
2018-Feb-17 18:29N 17°01' W 061°47'0 0.0
2018-Feb-17 17:59N 17°01' W 061°47'0 0.2
2018-Feb-17 17:30N 17°01' W 061°47'3 5.7
2018-Feb-17 17:00N 16°58' W 061°46'1 2.4
2018-Feb-17 16:30N 16°58' W 061°45'2 4.8
2018-Feb-17 16:00N 16°56' W 061°47'4 7.6
2018-Feb-17 15:30N 17°00' W 061°47'1 2.4
2018-Feb-17 15:00N 17°01' W 061°47'0 0.0
2018-Feb-17 13:46N 17°01' W 061°47'0 0.0
2018-Feb-16 22:42N 17°01' W 061°47'0 0.0
2018-Feb-16 22:31N 17°01' W 061°47'0 0.0
2018-Feb-16 22:00N 17°01' W 061°47'0 0.0
2018-Feb-16 21:28N 17°01' W 061°47'0 0.0
2018-Feb-16 20:58N 17°01' W 061°47'0 0.0
2018-Feb-16 20:25N 17°01' W 061°47'0 0.0
2018-Feb-16 19:58N 17°01' W 061°47'0 0.0
2018-Feb-16 19:28N 17°01' W 061°47'0 0.0
2018-Feb-16 18:58N 17°01' W 061°47'1 1.5
2018-Feb-16 18:31N 17°01' W 061°47'3 5.4
2018-Feb-16 18:00N 16°58' W 061°47'5 9.9
2018-Feb-16 17:30N 16°56' W 061°42'5 9.6
2018-Feb-16 17:01N 17°01' W 061°41'5 9.5
2018-Feb-16 16:30N 16°57' W 061°43'2 4.4
2018-Feb-16 16:00N 16°59' W 061°43'1 2.9
2018-Feb-16 15:30N 16°59' W 061°45'2 4.0
2018-Feb-16 14:55N 17°01' W 061°47'1 0.0
2018-Feb-15 22:20N 17°01' W 061°47'0 0.0
2018-Feb-15 21:59N 17°01' W 061°47'0 0.0
2018-Feb-15 21:29N 17°01' W 061°47'0 0.0
2018-Feb-15 20:56N 17°01' W 061°47'0 0.0
2018-Feb-15 20:29N 17°01' W 061°47'0 0.0
2018-Feb-15 19:23N 17°01' W 061°47'0 0.2
2018-Feb-15 18:59N 17°01' W 061°46'0 0.0
2018-Feb-15 18:29N 17°01' W 061°46'0 0.0
2018-Feb-15 17:59N 17°01' W 061°46'  

Dump ship's entire track history